Aviation Digital Data Service (ADDS)

Output produced by METARs form (2202 UTC 20 September 2014)
found at http://aviationweather.gov/adds/metars/
 
KSWF 201732Z 2018/2124 22010KT P6SM SCT035 BKN050 
     TEMPO 2018/2021 BKN035 
     FM202100 19008KT P6SM SCT035 BKN080 
     FM210100 VRB05KT P6SM SCT030 SCT080 
     FM210300 VRB04KT P6SM BKN025 BKN080 
     FM210600 VRB04KT 6SM BR BKN015 
     FM211600 VRB04KT P6SM SCT015 BKN035 
     FM211900 21006KT P6SM SCT150 AMD NOT SKED